Time,TemperatureF,DewpointF,PressureIn,WindDirection,WindDirectionDegrees,WindSpeedMPH,WindSpeedGustMPH,Humidity,HourlyPrecipIn,Conditions,Clouds,dailyrainin,SolarRadiationWatts/m^2,SoftwareType,DateUTC
2013-03-19 00:00:00,43.6,42.7,29.88,WNW,298,0.0,2.0,97,0.00,,,0.00,0,HR-IXPWINDi_r2_v1.2.,2013-03-19 04:00:00,
2013-03-19 00:05:00,43.6,42.7,29.88,WNW,298,0.0,0.0,97,0.00,,,0.00,0,HR-IXPWINDi_r2_v1.2.,2013-03-19 04:05:00,
2013-03-19 00:10:00,43.7,42.8,29.87,WNW,298,0.0,0.0,97,0.00,,,0.00,0,HR-IXPWINDi_r2_v1.2.,2013-03-19 04:10:00,
2013-03-19 00:15:00,43.6,42.7,29.87,WNW,298,0.0,0.0,97,0.00,,,0.00,0,HR-IXPWINDi_r2_v1.2.,2013-03-19 04:15:00,
2013-03-19 00:20:00,43.7,42.8,29.88,WNW,298,1.0,2.0,97,0.00,,,0.00,0,HR-IXPWINDi_r2_v1.2.,2013-03-19 04:20:00,
2013-03-19 00:25:00,43.6,42.7,29.88,WNW,298,0.0,2.0,97,0.00,,,0.00,0,HR-IXPWINDi_r2_v1.2.,2013-03-19 04:25:00,
2013-03-19 00:31:00,43.7,42.8,29.87,WNW,298,0.0,2.0,97,0.00,,,0.00,0,HR-IXPWINDi_r2_v1.2.,2013-03-19 04:31:00,
2013-03-19 00:36:00,43.4,42.5,29.89,WNW,298,0.0,1.0,97,0.00,,,0.00,0,HR-IXPWINDi_r2_v1.2.,2013-03-19 04:36:00,
2013-03-19 00:41:00,43.4,42.5,29.89,WNW,298,0.0,1.0,97,0.00,,,0.00,0,HR-IXPWINDi_r2_v1.2.,2013-03-19 04:41:00,
2013-03-19 00:46:00,43.4,42.5,29.88,WNW,298,0.0,2.0,97,0.00,,,0.00,0,HR-IXPWINDi_r2_v1.2.,2013-03-19 04:46:00,
2013-03-19 00:52:00,43.4,42.5,29.88,WNW,298,0.0,2.0,97,0.00,,,0.00,0,HR-IXPWINDi_r2_v1.2.,2013-03-19 04:52:00,
2013-03-19 00:57:00,43.3,42.4,29.88,WNW,298,0.0,1.0,97,0.00,,,0.00,0,HR-IXPWINDi_r2_v1.2.,2013-03-19 04:57:00,
2013-03-19 01:02:00,43.5,42.6,29.88,WNW,298,0.0,1.0,97,0.00,,,0.00,0,HR-IXPWINDi_r2_v1.2.,2013-03-19 05:02:00,
2013-03-19 01:07:00,43.4,42.5,29.88,WNW,298,0.0,0.0,97,0.00,,,0.00,0,HR-IXPWINDi_r2_v1.2.,2013-03-19 05:07:00,
2013-03-19 01:13:00,43.3,42.4,29.88,WNW,298,0.0,0.0,97,0.00,,,0.00,0,HR-IXPWINDi_r2_v1.2.,2013-03-19 05:13:00,
2013-03-19 01:18:00,43.0,42.2,29.88,WNW,303,0.0,2.0,97,0.00,,,0.00,0,HR-IXPWINDi_r2_v1.2.,2013-03-19 05:18:00,
2013-03-19 01:23:00,43.1,42.3,29.88,WNW,303,0.0,3.0,97,0.00,,,0.00,0,HR-IXPWINDi_r2_v1.2.,2013-03-19 05:23:00,
2013-03-19 01:28:00,43.1,42.3,29.88,WNW,303,0.0,3.0,97,0.00,,,0.00,0,HR-IXPWINDi_r2_v1.2.,2013-03-19 05:28:00,
2013-03-19 01:33:00,42.9,42.1,29.88,WNW,303,0.0,2.0,97,0.00,,,0.00,0,HR-IXPWINDi_r2_v1.2.,2013-03-19 05:33:00,
2013-03-19 01:38:00,43.0,42.2,29.88,WNW,303,0.0,2.0,97,0.00,,,0.00,0,HR-IXPWINDi_r2_v1.2.,2013-03-19 05:38:00,
2013-03-19 01:43:00,43.0,42.2,29.88,WNW,303,0.0,0.0,97,0.00,,,0.00,0,HR-IXPWINDi_r2_v1.2.,2013-03-19 05:43:00,
2013-03-19 01:49:00,42.9,42.1,29.88,WNW,303,0.0,0.0,97,0.00,,,0.00,0,HR-IXPWINDi_r2_v1.2.,2013-03-19 05:49:00,
2013-03-19 01:54:00,42.8,42.0,29.88,WNW,303,0.0,0.0,97,0.00,,,0.00,0,HR-IXPWINDi_r2_v1.2.,2013-03-19 05:54:00,
2013-03-19 01:59:00,42.8,42.0,29.88,WNW,303,0.0,0.0,97,0.00,,,0.00,0,HR-IXPWINDi_r2_v1.2.,2013-03-19 05:59:00,
2013-03-19 02:04:00,42.8,42.0,29.88,WNW,303,3.0,3.0,97,0.00,,,0.00,0,HR-IXPWINDi_r2_v1.2.,2013-03-19 06:04:00,
2013-03-19 02:10:00,42.6,41.8,29.88,WNW,303,0.0,3.0,97,0.00,,,0.00,0,HR-IXPWINDi_r2_v1.2.,2013-03-19 06:10:00,
2013-03-19 02:15:00,42.5,41.7,29.88,WNW,303,0.0,3.0,97,0.00,,,0.00,0,HR-IXPWINDi_r2_v1.2.,2013-03-19 06:15:00,
2013-03-19 02:20:00,42.6,41.8,29.88,WNW,303,0.0,2.0,97,0.00,,,0.00,0,HR-IXPWINDi_r2_v1.2.,2013-03-19 06:20:00,
2013-03-19 02:25:00,42.5,41.7,29.89,WNW,303,0.0,2.0,97,0.00,,,0.00,0,HR-IXPWINDi_r2_v1.2.,2013-03-19 06:25:00,
2013-03-19 02:30:00,42.6,41.8,29.89,WNW,303,0.0,2.0,97,0.00,,,0.00,0,HR-IXPWINDi_r2_v1.2.,2013-03-19 06:30:00,
2013-03-19 02:35:00,42.6,41.8,29.89,WNW,303,0.0,1.0,97,0.00,,,0.00,0,HR-IXPWINDi_r2_v1.2.,2013-03-19 06:35:00,
2013-03-19 02:41:00,42.4,41.6,29.89,WNW,303,0.0,1.0,97,0.00,,,0.00,0,HR-IXPWINDi_r2_v1.2.,2013-03-19 06:41:00,
2013-03-19 02:46:00,42.4,41.6,29.89,WNW,303,0.0,2.0,97,0.00,,,0.00,0,HR-IXPWINDi_r2_v1.2.,2013-03-19 06:46:00,
2013-03-19 02:51:00,42.2,41.4,29.89,WNW,303,0.0,3.0,97,0.00,,,0.00,0,HR-IXPWINDi_r2_v1.2.,2013-03-19 06:51:00,
2013-03-19 02:56:00,42.4,41.6,29.89,WNW,303,0.0,3.0,97,0.00,,,0.00,0,HR-IXPWINDi_r2_v1.2.,2013-03-19 06:56:00,
2013-03-19 03:01:00,42.4,41.6,29.90,WNW,285,2.0,3.0,97,0.00,,,0.00,0,HR-IXPWINDi_r2_v1.2.,2013-03-19 07:01:00,
2013-03-19 03:06:00,42.4,41.6,29.90,West,264,3.0,4.0,97,0.00,,,0.00,0,HR-IXPWINDi_r2_v1.2.,2013-03-19 07:06:00,
2013-03-19 03:12:00,42.4,41.6,29.90,West,263,0.0,4.0,97,0.00,,,0.00,0,HR-IXPWINDi_r2_v1.2.,2013-03-19 07:12:00,
2013-03-19 03:17:00,42.4,41.6,29.90,South,185,2.0,4.0,97,0.00,,,0.00,0,HR-IXPWINDi_r2_v1.2.,2013-03-19 07:17:00,
2013-03-19 03:22:00,42.4,41.6,29.90,SSE,165,0.0,4.0,97,0.00,,,0.00,0,HR-IXPWINDi_r2_v1.2.,2013-03-19 07:22:00,
2013-03-19 03:27:00,42.4,41.6,29.90,ESE,123,1.0,4.0,97,0.00,,,0.00,0,HR-IXPWINDi_r2_v1.2.,2013-03-19 07:27:00,
2013-03-19 03:32:00,42.5,41.7,29.90,ENE,71,0.0,2.0,97,0.00,,,0.00,0,HR-IXPWINDi_r2_v1.2.,2013-03-19 07:32:00,
2013-03-19 03:38:00,42.5,41.7,29.89,NE,55,1.0,4.0,97,0.00,,,0.00,0,HR-IXPWINDi_r2_v1.2.,2013-03-19 07:38:00,
2013-03-19 03:43:00,42.5,41.7,29.89,ENE,73,0.0,4.0,97,0.00,,,0.00,0,HR-IXPWINDi_r2_v1.2.,2013-03-19 07:43:00,
2013-03-19 03:48:00,42.5,41.7,29.90,East,85,0.0,4.0,97,0.00,,,0.00,0,HR-IXPWINDi_r2_v1.2.,2013-03-19 07:48:00,
2013-03-19 03:53:00,42.5,41.7,29.89,SE,126,0.0,5.0,97,0.00,,,0.00,0,HR-IXPWINDi_r2_v1.2.,2013-03-19 07:53:00,
2013-03-19 03:58:00,42.5,41.7,29.89,ESE,123,0.0,5.0,97,0.00,,,0.00,0,HR-IXPWINDi_r2_v1.2.,2013-03-19 07:58:00,
2013-03-19 04:03:00,42.3,41.5,29.89,East,81,2.0,4.0,97,0.00,,,0.00,0,HR-IXPWINDi_r2_v1.2.,2013-03-19 08:03:00,
2013-03-19 04:08:00,42.2,41.4,29.89,East,92,1.0,4.0,97,0.00,,,0.00,0,HR-IXPWINDi_r2_v1.2.,2013-03-19 08:08:00,
2013-03-19 04:14:00,42.0,41.2,29.89,East,92,0.0,4.0,97,0.00,,,0.00,0,HR-IXPWINDi_r2_v1.2.,2013-03-19 08:14:00,
2013-03-19 04:19:00,42.1,41.3,29.89,East,92,0.0,1.0,97,0.00,,,0.00,0,HR-IXPWINDi_r2_v1.2.,2013-03-19 08:19:00,
2013-03-19 04:24:00,42.2,41.4,29.90,East,92,0.0,0.0,97,0.00,,,0.00,0,HR-IXPWINDi_r2_v1.2.,2013-03-19 08:24:00,
2013-03-19 04:29:00,42.0,41.2,29.90,East,92,0.0,0.0,97,0.00,,,0.00,0,HR-IXPWINDi_r2_v1.2.,2013-03-19 08:29:00,
2013-03-19 04:34:00,42.0,41.2,29.90,East,92,0.0,1.0,97,0.00,,,0.01,0,HR-IXPWINDi_r2_v1.2.,2013-03-19 08:34:00,
2013-03-19 04:39:00,42.1,41.5,29.90,East,92,0.0,1.0,98,0.00,,,0.01,0,HR-IXPWINDi_r2_v1.2.,2013-03-19 08:39:00,
2013-03-19 04:45:00,42.2,41.6,29.90,East,92,0.0,2.0,98,0.00,,,0.01,0,HR-IXPWINDi_r2_v1.2.,2013-03-19 08:45:00,
2013-03-19 04:50:00,42.2,41.6,29.90,East,96,2.0,4.0,98,0.00,,,0.01,0,HR-IXPWINDi_r2_v1.2.,2013-03-19 08:50:00,
2013-03-19 04:55:00,42.3,41.7,29.90,East,96,0.0,4.0,98,0.00,,,0.01,0,HR-IXPWINDi_r2_v1.2.,2013-03-19 08:55:00,
2013-03-19 05:00:00,42.3,41.7,29.90,East,96,0.0,4.0,98,0.00,,,0.01,0,HR-IXPWINDi_r2_v1.2.,2013-03-19 09:00:00,
2013-03-19 05:05:00,42.5,41.7,29.90,East,96,0.0,1.0,97,0.00,,,0.01,0,HR-IXPWINDi_r2_v1.2.,2013-03-19 09:05:00,
2013-03-19 05:10:00,42.5,41.7,29.91,SE,140,0.0,5.0,97,0.00,,,0.01,0,HR-IXPWINDi_r2_v1.2.,2013-03-19 09:10:00,
2013-03-19 05:16:00,42.9,42.3,29.91,West,265,1.0,9.0,98,0.00,,,0.01,0,HR-IXPWINDi_r2_v1.2.,2013-03-19 09:16:00,
2013-03-19 05:21:00,44.0,43.4,29.92,WSW,251,1.0,9.0,98,0.00,,,0.01,0,HR-IXPWINDi_r2_v1.2.,2013-03-19 09:21:00,
2013-03-19 05:26:00,44.3,43.7,29.93,SSW,201,1.0,6.0,98,0.00,,,0.01,0,HR-IXPWINDi_r2_v1.2.,2013-03-19 09:26:00,
2013-03-19 05:31:00,44.5,43.9,29.93,NW,323,3.0,10.0,98,0.00,,,0.01,0,HR-IXPWINDi_r2_v1.2.,2013-03-19 09:31:00,
2013-03-19 05:37:00,44.5,43.9,29.94,WNW,284,3.0,10.0,98,0.00,,,0.01,0,HR-IXPWINDi_r2_v1.2.,2013-03-19 09:37:00,
2013-03-19 05:42:00,44.4,43.8,29.93,SW,231,1.0,8.0,98,0.00,,,0.01,0,HR-IXPWINDi_r2_v1.2.,2013-03-19 09:42:00,
2013-03-19 05:47:00,44.3,43.4,29.94,West,277,0.0,8.0,97,0.00,,,0.01,0,HR-IXPWINDi_r2_v1.2.,2013-03-19 09:47:00,
2013-03-19 05:52:00,44.2,43.3,29.94,East,90,1.0,11.0,97,0.00,,,0.01,0,HR-IXPWINDi_r2_v1.2.,2013-03-19 09:52:00,
2013-03-19 05:57:00,44.0,43.1,29.94,West,277,1.0,11.0,97,0.00,,,0.01,0,HR-IXPWINDi_r2_v1.2.,2013-03-19 09:57:00,
2013-03-19 06:02:00,43.9,43.0,29.95,NW,309,6.0,13.0,97,0.00,,,0.01,0,HR-IXPWINDi_r2_v1.2.,2013-03-19 10:02:00,
2013-03-19 06:07:00,43.9,43.0,29.95,SW,214,3.0,13.0,97,0.00,,,0.01,0,HR-IXPWINDi_r2_v1.2.,2013-03-19 10:07:00,
2013-03-19 06:13:00,43.7,42.8,29.96,SSW,192,0.0,16.0,97,0.00,,,0.01,0,HR-IXPWINDi_r2_v1.2.,2013-03-19 10:13:00,
2013-03-19 06:18:00,43.6,42.5,29.96,North,5,3.0,16.0,96,0.00,,,0.01,0,HR-IXPWINDi_r2_v1.2.,2013-03-19 10:18:00,
2013-03-19 06:23:00,43.4,42.3,29.97,NNW,339,15.0,20.0,96,0.00,,,0.01,0,HR-IXPWINDi_r2_v1.2.,2013-03-19 10:23:00,
2013-03-19 06:28:00,42.8,41.4,29.98,NNW,331,7.0,20.0,95,0.00,,,0.01,0,HR-IXPWINDi_r2_v1.2.,2013-03-19 10:28:00,
2013-03-19 06:33:00,42.4,41.0,29.99,WSW,255,2.0,20.0,95,0.00,,,0.01,0,HR-IXPWINDi_r2_v1.2.,2013-03-19 10:33:00,
2013-03-19 06:38:00,42.2,40.5,30.00,WNW,300,0.0,15.0,94,0.00,,,0.01,0,HR-IXPWINDi_r2_v1.2.,2013-03-19 10:38:00,
2013-03-19 06:43:00,41.9,40.0,30.00,SW,221,3.0,12.0,93,0.00,,,0.01,0,HR-IXPWINDi_r2_v1.2.,2013-03-19 10:43:00,
2013-03-19 06:48:00,41.3,39.1,30.00,NW,319,4.0,12.0,92,0.00,,,0.01,0,HR-IXPWINDi_r2_v1.2.,2013-03-19 10:48:00,
2013-03-19 06:53:00,40.8,38.3,30.01,NE,46,3.0,7.0,91,0.00,,,0.01,0,HR-IXPWINDi_r2_v1.2.,2013-03-19 10:53:00,
2013-03-19 06:59:00,40.3,37.6,30.02,WSW,239,1.0,7.0,90,0.00,,,0.01,0,HR-IXPWINDi_r2_v1.2.,2013-03-19 10:59:00,
2013-03-19 07:04:00,40.0,37.0,30.01,SSW,205,1.0,7.0,89,0.00,,,0.01,0,HR-IXPWINDi_r2_v1.2.,2013-03-19 11:04:00,
2013-03-19 07:09:00,39.7,36.4,30.02,NW,304,6.0,13.0,88,0.00,,,0.01,0,HR-IXPWINDi_r2_v1.2.,2013-03-19 11:09:00,
2013-03-19 07:14:00,39.4,35.8,30.01,SSW,212,2.0,17.0,87,0.00,,,0.01,0,HR-IXPWINDi_r2_v1.2.,2013-03-19 11:14:00,
2013-03-19 07:19:00,39.2,35.3,30.02,SW,222,2.0,17.0,86,0.00,,,0.01,0,HR-IXPWINDi_r2_v1.2.,2013-03-19 11:19:00,
2013-03-19 07:24:00,38.8,34.9,30.02,NNE,18,0.0,10.0,86,0.00,,,0.01,0,HR-IXPWINDi_r2_v1.2.,2013-03-19 11:24:00,
2013-03-19 07:29:00,38.6,34.4,30.03,SE,136,1.0,10.0,85,0.00,,,0.01,0,HR-IXPWINDi_r2_v1.2.,2013-03-19 11:29:00,
2013-03-19 07:34:00,38.3,34.2,30.03,WSW,240,1.0,10.0,85,0.00,,,0.01,0,HR-IXPWINDi_r2_v1.2.,2013-03-19 11:34:00,
2013-03-19 07:39:00,38.0,33.6,30.04,NNW,344,2.0,10.0,84,0.00,,,0.01,0,HR-IXPWINDi_r2_v1.2.,2013-03-19 11:39:00,
2013-03-19 07:45:00,37.7,33.6,30.05,North,11,3.0,7.0,85,0.00,,,0.01,0,HR-IXPWINDi_r2_v1.2.,2013-03-19 11:45:00,
2013-03-19 07:50:00,37.5,33.1,30.05,WSW,246,0.0,7.0,84,0.00,,,0.01,0,HR-IXPWINDi_r2_v1.2.,2013-03-19 11:50:00,
2013-03-19 07:56:00,37.6,32.9,30.05,SW,214,12.0,14.0,83,0.00,,,0.01,5,HR-IXPWINDi_r2_v1.2.,2013-03-19 11:56:00,
2013-03-19 08:01:00,37.4,32.4,30.05,SSW,199,3.0,14.0,82,0.00,,,0.01,5,HR-IXPWINDi_r2_v1.2.,2013-03-19 12:01:00,
2013-03-19 08:06:00,37.3,32.3,30.05,North,360,1.0,14.0,82,0.00,,,0.01,7,HR-IXPWINDi_r2_v1.2.,2013-03-19 12:06:00,
2013-03-19 08:11:00,37.3,32.3,30.06,SW,216,0.0,5.0,82,0.00,,,0.01,11,HR-IXPWINDi_r2_v1.2.,2013-03-19 12:11:00,
2013-03-19 08:16:00,37.1,32.4,30.06,SW,216,0.0,4.0,83,0.00,,,0.01,25,HR-IXPWINDi_r2_v1.2.,2013-03-19 12:16:00,
2013-03-19 08:21:00,37.0,32.0,30.05,South,181,0.0,6.0,82,0.00,,,0.01,35,HR-IXPWINDi_r2_v1.2.,2013-03-19 12:21:00,
2013-03-19 08:26:00,36.9,32.2,30.05,South,181,1.0,6.0,83,0.00,,,0.01,40,HR-IXPWINDi_r2_v1.2.,2013-03-19 12:26:00,
2013-03-19 08:31:00,36.9,32.2,30.05,South,181,0.0,4.0,83,0.00,,,0.01,42,HR-IXPWINDi_r2_v1.2.,2013-03-19 12:31:00,
2013-03-19 08:37:00,36.9,32.5,30.06,South,181,0.0,4.0,84,0.00,,,0.01,42,HR-IXPWINDi_r2_v1.2.,2013-03-19 12:37:00,
2013-03-19 08:42:00,36.9,32.5,30.06,South,182,0.0,5.0,84,0.00,,,0.01,47,HR-IXPWINDi_r2_v1.2.,2013-03-19 12:42:00,
2013-03-19 08:47:00,37.3,32.9,30.05,SW,229,0.0,5.0,84,0.00,,,0.01,174,HR-IXPWINDi_r2_v1.2.,2013-03-19 12:47:00,
2013-03-19 08:52:00,37.7,32.4,30.05,SSW,207,3.0,6.0,81,0.00,,,0.01,214,HR-IXPWINDi_r2_v1.2.,2013-03-19 12:52:00,
2013-03-19 08:57:00,37.9,31.9,30.06,NNW,331,3.0,6.0,79,0.00,,,0.01,220,HR-IXPWINDi_r2_v1.2.,2013-03-19 12:57:00,
2013-03-19 09:02:00,38.2,32.2,30.05,ESE,111,1.0,5.0,79,0.00,,,0.01,218,HR-IXPWINDi_r2_v1.2.,2013-03-19 13:02:00,
2013-03-19 09:08:00,38.7,32.7,30.05,West,267,1.0,7.0,79,0.00,,,0.01,274,HR-IXPWINDi_r2_v1.2.,2013-03-19 13:08:00,
2013-03-19 09:13:00,39.1,33.1,30.05,SSW,204,0.0,7.0,79,0.00,,,0.01,294,HR-IXPWINDi_r2_v1.2.,2013-03-19 13:13:00,
2013-03-19 09:18:00,39.2,32.6,30.05,SW,216,0.0,6.0,77,0.00,,,0.01,309,HR-IXPWINDi_r2_v1.2.,2013-03-19 13:18:00,
2013-03-19 09:23:00,39.9,33.6,30.05,WSW,242,3.0,5.0,78,0.00,,,0.01,327,HR-IXPWINDi_r2_v1.2.,2013-03-19 13:23:00,
2013-03-19 09:29:00,40.0,32.7,30.05,South,190,0.0,5.0,75,0.00,,,0.01,350,HR-IXPWINDi_r2_v1.2.,2013-03-19 13:29:00,
2013-03-19 09:34:00,40.3,32.6,30.04,East,88,0.0,5.0,74,0.00,,,0.01,367,HR-IXPWINDi_r2_v1.2.,2013-03-19 13:34:00,
2013-03-19 09:40:00,40.2,31.2,30.04,SSW,202,1.0,5.0,70,0.00,,,0.01,383,HR-IXPWINDi_r2_v1.2.,2013-03-19 13:40:00,
2013-03-19 09:45:00,39.8,30.8,30.04,NNW,339,2.0,10.0,70,0.00,,,0.01,404,HR-IXPWINDi_r2_v1.2.,2013-03-19 13:45:00,
2013-03-19 09:50:00,39.7,30.7,30.04,North,355,7.0,10.0,70,0.00,,,0.01,420,HR-IXPWINDi_r2_v1.2.,2013-03-19 13:50:00,
2013-03-19 09:55:00,40.1,31.4,30.04,NNW,329,5.0,11.0,71,0.00,,,0.01,436,HR-IXPWINDi_r2_v1.2.,2013-03-19 13:55:00,
2013-03-19 10:00:00,41.6,32.2,30.04,East,99,0.0,11.0,69,0.00,,,0.01,455,HR-IXPWINDi_r2_v1.2.,2013-03-19 14:00:00,
2013-03-19 10:06:00,41.9,32.1,30.04,WNW,291,0.0,7.0,68,0.00,,,0.01,475,HR-IXPWINDi_r2_v1.2.,2013-03-19 14:06:00,
2013-03-19 10:11:00,42.2,33.1,30.04,North,5,2.0,7.0,70,0.00,,,0.01,489,HR-IXPWINDi_r2_v1.2.,2013-03-19 14:11:00,
2013-03-19 10:16:00,42.4,34.0,30.04,South,175,8.0,8.0,72,0.00,,,0.01,504,HR-IXPWINDi_r2_v1.2.,2013-03-19 14:16:00,
2013-03-19 10:21:00,42.2,32.0,30.03,SW,216,0.0,8.0,67,0.00,,,0.01,519,HR-IXPWINDi_r2_v1.2.,2013-03-19 14:21:00,
2013-03-19 10:26:00,42.6,33.1,30.03,NNW,338,3.0,8.0,69,0.00,,,0.01,534,HR-IXPWINDi_r2_v1.2.,2013-03-19 14:26:00,
2013-03-19 10:31:00,43.3,32.3,30.03,NW,306,2.0,8.0,65,0.00,,,0.01,548,HR-IXPWINDi_r2_v1.2.,2013-03-19 14:31:00,
2013-03-19 10:36:00,43.4,32.8,30.04,West,281,1.0,12.0,66,0.00,,,0.01,564,HR-IXPWINDi_r2_v1.2.,2013-03-19 14:36:00,
2013-03-19 10:41:00,42.6,31.2,30.04,NNW,346,7.0,12.0,64,0.00,,,0.01,578,HR-IXPWINDi_r2_v1.2.,2013-03-19 14:41:00,
2013-03-19 10:47:00,42.7,32.1,30.04,NNW,336,3.0,9.0,66,0.00,,,0.01,589,HR-IXPWINDi_r2_v1.2.,2013-03-19 14:47:00,
2013-03-19 10:52:00,43.8,33.2,30.04,South,178,0.0,9.0,66,0.00,,,0.01,601,HR-IXPWINDi_r2_v1.2.,2013-03-19 14:52:00,
2013-03-19 10:57:00,44.4,33.0,30.04,West,262,1.0,8.0,64,0.00,,,0.01,621,HR-IXPWINDi_r2_v1.2.,2013-03-19 14:57:00,
2013-03-19 11:02:00,44.0,32.2,30.04,SSW,205,0.0,6.0,63,0.00,,,0.01,631,HR-IXPWINDi_r2_v1.2.,2013-03-19 15:02:00,
2013-03-19 11:07:00,44.5,33.1,30.04,SW,231,2.0,9.0,64,0.00,,,0.01,647,HR-IXPWINDi_r2_v1.2.,2013-03-19 15:07:00,
2013-03-19 11:12:00,43.9,32.5,30.05,SSW,211,0.0,9.0,64,0.00,,,0.01,659,HR-IXPWINDi_r2_v1.2.,2013-03-19 15:12:00,
2013-03-19 11:18:00,45.0,33.1,30.05,NNW,336,3.0,9.0,63,0.00,,,0.01,671,HR-IXPWINDi_r2_v1.2.,2013-03-19 15:18:00,
2013-03-19 11:23:00,45.0,32.7,30.05,NW,326,7.0,11.0,62,0.00,,,0.01,680,HR-IXPWINDi_r2_v1.2.,2013-03-19 15:23:00,
2013-03-19 11:28:00,45.1,32.4,30.06,WSW,253,3.0,11.0,61,0.00,,,0.01,691,HR-IXPWINDi_r2_v1.2.,2013-03-19 15:28:00,
2013-03-19 11:33:00,45.5,32.4,30.06,West,273,0.0,11.0,60,0.00,,,0.01,705,HR-IXPWINDi_r2_v1.2.,2013-03-19 15:33:00,
2013-03-19 11:38:00,45.8,31.8,30.06,ENE,78,4.0,8.0,58,0.00,,,0.01,714,HR-IXPWINDi_r2_v1.2.,2013-03-19 15:38:00,
2013-03-19 11:43:00,46.7,32.2,30.06,SW,231,5.0,9.0,57,0.00,,,0.01,722,HR-IXPWINDi_r2_v1.2.,2013-03-19 15:43:00,
2013-03-19 11:49:00,46.6,30.8,30.06,WSW,245,2.0,9.0,54,0.00,,,0.01,740,HR-IXPWINDi_r2_v1.2.,2013-03-19 15:49:00,
2013-03-19 11:54:00,46.1,30.4,30.06,WSW,255,2.0,9.0,54,0.00,,,0.01,742,HR-IXPWINDi_r2_v1.2.,2013-03-19 15:54:00,
2013-03-19 11:59:00,46.1,29.9,30.06,SSW,192,5.0,9.0,53,0.00,,,0.01,752,HR-IXPWINDi_r2_v1.2.,2013-03-19 15:59:00,
2013-03-19 12:04:00,46.9,30.6,30.06,North,355,3.0,11.0,53,0.00,,,0.01,761,HR-IXPWINDi_r2_v1.2.,2013-03-19 16:04:00,
2013-03-19 12:09:00,47.1,30.8,30.06,SSW,194,3.0,11.0,53,0.00,,,0.01,770,HR-IXPWINDi_r2_v1.2.,2013-03-19 16:09:00,
2013-03-19 12:14:00,47.2,27.5,30.06,SSW,194,8.0,10.0,46,0.00,,,0.01,777,HR-IXPWINDi_r2_v1.2.,2013-03-19 16:14:00,
2013-03-19 12:19:00,48.1,30.8,30.06,WNW,287,1.0,12.0,51,0.00,,,0.01,782,HR-IXPWINDi_r2_v1.2.,2013-03-19 16:19:00,
2013-03-19 12:25:00,48.5,29.7,30.07,WSW,255,1.0,12.0,48,0.00,,,0.01,793,HR-IXPWINDi_r2_v1.2.,2013-03-19 16:25:00,
2013-03-19 12:30:00,48.4,29.1,30.07,WSW,245,2.0,10.0,47,0.00,,,0.01,795,HR-IXPWINDi_r2_v1.2.,2013-03-19 16:30:00,
2013-03-19 12:35:00,48.4,28.0,30.07,South,171,1.0,14.0,45,0.00,,,0.01,800,HR-IXPWINDi_r2_v1.2.,2013-03-19 16:35:00,
2013-03-19 12:40:00,48.3,29.5,30.06,NW,325,6.0,17.0,48,0.00,,,0.01,803,HR-IXPWINDi_r2_v1.2.,2013-03-19 16:40:00,
2013-03-19 12:45:00,48.1,28.3,30.07,WNW,302,3.0,17.0,46,0.00,,,0.01,807,HR-IXPWINDi_r2_v1.2.,2013-03-19 16:45:00,
2013-03-19 12:51:00,48.8,30.5,30.07,NW,324,3.0,12.0,49,0.00,,,0.01,812,HR-IXPWINDi_r2_v1.2.,2013-03-19 16:51:00,
2013-03-19 12:56:00,48.5,30.2,30.07,WNW,298,4.0,15.0,49,0.00,,,0.01,814,HR-IXPWINDi_r2_v1.2.,2013-03-19 16:56:00,
2013-03-19 13:01:00,48.2,28.9,30.06,West,275,1.0,15.0,47,0.00,,,0.01,821,HR-IXPWINDi_r2_v1.2.,2013-03-19 17:01:00,
2013-03-19 13:06:00,48.7,28.3,30.06,SSW,203,4.0,15.0,45,0.00,,,0.01,821,HR-IXPWINDi_r2_v1.2.,2013-03-19 17:06:00,
2013-03-19 13:11:00,49.6,27.4,30.06,WNW,303,4.0,11.0,42,0.00,,,0.01,826,HR-IXPWINDi_r2_v1.2.,2013-03-19 17:11:00,
2013-03-19 13:17:00,49.2,26.5,30.06,West,275,0.0,10.0,41,0.00,,,0.01,830,HR-IXPWINDi_r2_v1.2.,2013-03-19 17:17:00,
2013-03-19 13:22:00,49.0,27.5,30.05,South,188,0.0,11.0,43,0.00,,,0.01,830,HR-IXPWINDi_r2_v1.2.,2013-03-19 17:22:00,
2013-03-19 13:27:00,49.3,27.2,30.05,WSW,246,1.0,11.0,42,0.00,,,0.01,831,HR-IXPWINDi_r2_v1.2.,2013-03-19 17:27:00,
2013-03-19 13:32:00,50.6,28.9,30.05,NNW,348,16.0,18.0,43,0.00,,,0.01,830,HR-IXPWINDi_r2_v1.2.,2013-03-19 17:32:00,
2013-03-19 13:37:00,49.0,26.9,30.05,SW,223,2.0,18.0,42,0.00,,,0.01,826,HR-IXPWINDi_r2_v1.2.,2013-03-19 17:37:00,
2013-03-19 13:42:00,50.2,26.8,30.05,West,261,0.0,18.0,40,0.00,,,0.01,828,HR-IXPWINDi_r2_v1.2.,2013-03-19 17:42:00,
2013-03-19 13:48:00,49.7,26.3,30.05,NNW,346,6.0,16.0,40,0.00,,,0.01,826,HR-IXPWINDi_r2_v1.2.,2013-03-19 17:48:00,
2013-03-19 13:53:00,50.8,29.1,30.05,SSW,203,7.0,16.0,43,0.00,,,0.01,824,HR-IXPWINDi_r2_v1.2.,2013-03-19 17:53:00,
2013-03-19 13:58:00,49.9,25.9,30.05,North,351,11.0,18.0,39,0.00,,,0.01,823,HR-IXPWINDi_r2_v1.2.,2013-03-19 17:58:00,
2013-03-19 14:03:00,49.7,26.3,30.05,NW,306,9.0,20.0,40,0.00,,,0.01,819,HR-IXPWINDi_r2_v1.2.,2013-03-19 18:03:00,
2013-03-19 14:09:00,51.1,28.2,30.06,NW,306,3.0,20.0,41,0.00,,,0.01,816,HR-IXPWINDi_r2_v1.2.,2013-03-19 18:09:00,
2013-03-19 14:14:00,51.2,27.1,30.05,North,355,11.0,17.0,39,0.00,,,0.01,810,HR-IXPWINDi_r2_v1.2.,2013-03-19 18:14:00,
2013-03-19 14:19:00,50.9,28.0,30.05,North,351,4.0,20.0,41,0.00,,,0.01,807,HR-IXPWINDi_r2_v1.2.,2013-03-19 18:19:00,
2013-03-19 14:25:00,51.1,28.8,30.05,NNW,338,13.0,20.0,42,0.00,,,0.01,802,HR-IXPWINDi_r2_v1.2.,2013-03-19 18:25:00,
2013-03-19 14:30:00,51.4,28.5,30.05,WNW,300,4.0,18.0,41,0.00,,,0.01,796,HR-IXPWINDi_r2_v1.2.,2013-03-19 18:30:00,
2013-03-19 14:35:00,51.5,29.1,30.04,NNE,19,1.0,16.0,42,0.00,,,0.01,789,HR-IXPWINDi_r2_v1.2.,2013-03-19 18:35:00,
2013-03-19 14:40:00,52.6,30.7,30.04,NNW,330,3.0,16.0,43,0.00,,,0.01,782,HR-IXPWINDi_r2_v1.2.,2013-03-19 18:40:00,
2013-03-19 14:45:00,51.9,28.9,30.04,NW,311,3.0,17.0,41,0.00,,,0.01,777,HR-IXPWINDi_r2_v1.2.,2013-03-19 18:45:00,
2013-03-19 14:50:00,51.9,27.7,30.04,NW,311,2.0,17.0,39,0.00,,,0.01,772,HR-IXPWINDi_r2_v1.2.,2013-03-19 18:50:00,
2013-03-19 14:56:00,53.0,27.4,30.04,North,11,7.0,16.0,37,0.00,,,0.01,763,HR-IXPWINDi_r2_v1.2.,2013-03-19 18:56:00,
2013-03-19 15:01:00,51.9,27.1,30.03,NNW,329,8.0,14.0,38,0.00,,,0.01,758,HR-IXPWINDi_r2_v1.2.,2013-03-19 19:01:00,
2013-03-19 15:06:00,52.4,27.5,30.03,North,350,12.0,17.0,38,0.00,,,0.01,747,HR-IXPWINDi_r2_v1.2.,2013-03-19 19:06:00,
2013-03-19 15:11:00,51.6,26.8,30.04,North,10,5.0,17.0,38,0.00,,,0.01,738,HR-IXPWINDi_r2_v1.2.,2013-03-19 19:11:00,
2013-03-19 15:16:00,52.8,29.1,30.03,NNW,338,3.0,17.0,40,0.00,,,0.01,726,HR-IXPWINDi_r2_v1.2.,2013-03-19 19:16:00,
2013-03-19 15:22:00,53.2,28.9,30.03,NNW,339,2.0,11.0,39,0.00,,,0.01,717,HR-IXPWINDi_r2_v1.2.,2013-03-19 19:22:00,
2013-03-19 15:27:00,53.3,28.3,30.04,NNE,13,3.0,11.0,38,0.00,,,0.01,710,HR-IXPWINDi_r2_v1.2.,2013-03-19 19:27:00,
2013-03-19 15:32:00,54.4,29.9,30.04,NW,311,6.0,11.0,39,0.00,,,0.01,698,HR-IXPWINDi_r2_v1.2.,2013-03-19 19:32:00,
2013-03-19 15:37:00,53.6,27.3,30.04,NNW,344,11.0,14.0,36,0.00,,,0.01,687,HR-IXPWINDi_r2_v1.2.,2013-03-19 19:37:00,
2013-03-19 15:42:00,53.2,28.9,30.05,North,5,8.0,15.0,39,0.00,,,0.01,677,HR-IXPWINDi_r2_v1.2.,2013-03-19 19:42:00,
2013-03-19 15:48:00,53.3,27.0,30.04,North,355,8.0,15.0,36,0.00,,,0.01,666,HR-IXPWINDi_r2_v1.2.,2013-03-19 19:48:00,
2013-03-19 15:53:00,53.9,29.5,30.04,North,9,11.0,13.0,39,0.00,,,0.01,654,HR-IXPWINDi_r2_v1.2.,2013-03-19 19:53:00,
2013-03-19 15:58:00,53.2,28.2,30.04,NW,325,0.0,18.0,38,0.00,,,0.01,640,HR-IXPWINDi_r2_v1.2.,2013-03-19 19:58:00,
2013-03-19 16:03:00,53.3,28.3,30.04,NW,317,4.0,18.0,38,0.00,,,0.01,629,HR-IXPWINDi_r2_v1.2.,2013-03-19 20:03:00,
2013-03-19 16:08:00,53.7,27.4,30.04,North,355,10.0,14.0,36,0.00,,,0.01,621,HR-IXPWINDi_r2_v1.2.,2013-03-19 20:08:00,
2013-03-19 16:13:00,53.8,26.8,30.03,North,5,7.0,15.0,35,0.00,,,0.01,605,HR-IXPWINDi_r2_v1.2.,2013-03-19 20:13:00,
2013-03-19 16:18:00,54.1,26.3,30.03,North,349,1.0,15.0,34,0.00,,,0.01,591,HR-IXPWINDi_r2_v1.2.,2013-03-19 20:18:00,
2013-03-19 16:24:00,54.4,27.3,30.03,North,360,7.0,11.0,35,0.00,,,0.01,580,HR-IXPWINDi_r2_v1.2.,2013-03-19 20:24:00,
2013-03-19 16:29:00,54.4,26.6,30.03,NNW,340,12.0,17.0,34,0.00,,,0.01,561,HR-IXPWINDi_r2_v1.2.,2013-03-19 20:29:00,
2013-03-19 16:34:00,54.1,27.0,30.03,NNW,331,5.0,21.0,35,0.00,,,0.01,547,HR-IXPWINDi_r2_v1.2.,2013-03-19 20:34:00,
2013-03-19 16:39:00,54.0,28.3,30.04,West,277,3.0,21.0,37,0.00,,,0.01,533,HR-IXPWINDi_r2_v1.2.,2013-03-19 20:39:00,
2013-03-19 16:44:00,54.7,26.9,30.04,North,351,9.0,12.0,34,0.00,,,0.01,522,HR-IXPWINDi_r2_v1.2.,2013-03-19 20:44:00,
2013-03-19 16:49:00,53.7,26.0,30.04,NNW,329,4.0,26.0,34,0.00,,,0.01,506,HR-IXPWINDi_r2_v1.2.,2013-03-19 20:49:00,
2013-03-19 16:54:00,54.6,27.5,30.04,NW,325,4.0,26.0,35,0.00,,,0.01,487,HR-IXPWINDi_r2_v1.2.,2013-03-19 20:54:00,
2013-03-19 16:59:00,54.7,26.1,30.04,NW,325,7.0,14.0,33,0.00,,,0.01,471,HR-IXPWINDi_r2_v1.2.,2013-03-19 20:59:00,
2013-03-19 17:04:00,53.6,26.6,30.04,NW,306,5.0,15.0,35,0.00,,,0.01,454,HR-IXPWINDi_r2_v1.2.,2013-03-19 21:04:00,
2013-03-19 17:10:00,53.7,26.0,30.04,NNW,333,7.0,15.0,34,0.00,,,0.01,439,HR-IXPWINDi_r2_v1.2.,2013-03-19 21:10:00,
2013-03-19 17:15:00,53.7,27.4,30.04,SSW,192,0.0,10.0,36,0.00,,,0.01,424,HR-IXPWINDi_r2_v1.2.,2013-03-19 21:15:00,
2013-03-19 17:20:00,53.8,26.1,30.04,SSE,155,0.0,9.0,34,0.00,,,0.01,408,HR-IXPWINDi_r2_v1.2.,2013-03-19 21:20:00,
2013-03-19 17:25:00,54.1,27.0,30.04,WNW,294,4.0,6.0,35,0.00,,,0.01,359,HR-IXPWINDi_r2_v1.2.,2013-03-19 21:25:00,
2013-03-19 17:30:00,53.2,26.2,30.04,WNW,290,4.0,13.0,35,0.00,,,0.01,376,HR-IXPWINDi_r2_v1.2.,2013-03-19 21:30:00,
2013-03-19 17:35:00,53.7,26.7,30.05,NNE,28,5.0,13.0,35,0.00,,,0.01,355,HR-IXPWINDi_r2_v1.2.,2013-03-19 21:35:00,
2013-03-19 17:40:00,52.8,26.6,30.04,SSW,210,5.0,17.0,36,0.00,,,0.01,336,HR-IXPWINDi_r2_v1.2.,2013-03-19 21:40:00,
2013-03-19 17:45:00,52.4,26.2,30.05,NNW,333,3.0,20.0,36,0.00,,,0.01,271,HR-IXPWINDi_r2_v1.2.,2013-03-19 21:45:00,
2013-03-19 17:51:00,52.5,27.0,30.04,South,185,3.0,20.0,37,0.00,,,0.01,135,HR-IXPWINDi_r2_v1.2.,2013-03-19 21:51:00,
2013-03-19 17:56:00,52.3,27.4,30.05,North,349,0.0,17.0,38,0.00,,,0.01,107,HR-IXPWINDi_r2_v1.2.,2013-03-19 21:56:00,
2013-03-19 18:01:00,51.9,26.4,30.05,WNW,294,1.0,17.0,37,0.00,,,0.01,121,HR-IXPWINDi_r2_v1.2.,2013-03-19 22:01:00,
2013-03-19 18:06:00,51.7,27.5,30.05,North,350,5.0,17.0,39,0.00,,,0.01,37,HR-IXPWINDi_r2_v1.2.,2013-03-19 22:06:00,
2013-03-19 18:11:00,51.4,27.3,30.05,NNW,333,4.0,17.0,39,0.00,,,0.01,51,HR-IXPWINDi_r2_v1.2.,2013-03-19 22:11:00,
2013-03-19 18:16:00,51.2,26.4,30.05,North,350,8.0,15.0,38,0.00,,,0.01,58,HR-IXPWINDi_r2_v1.2.,2013-03-19 22:16:00,
2013-03-19 18:22:00,51.1,26.4,30.05,NW,319,5.0,15.0,38,0.00,,,0.01,47,HR-IXPWINDi_r2_v1.2.,2013-03-19 22:22:00,
2013-03-19 18:27:00,51.0,26.3,30.06,North,350,4.0,15.0,38,0.00,,,0.01,56,HR-IXPWINDi_r2_v1.2.,2013-03-19 22:27:00,
2013-03-19 18:32:00,51.0,26.3,30.05,NNE,25,2.0,11.0,38,0.00,,,0.01,33,HR-IXPWINDi_r2_v1.2.,2013-03-19 22:32:00,
2013-03-19 18:37:00,50.9,26.8,30.05,WSW,251,1.0,8.0,39,0.00,,,0.01,42,HR-IXPWINDi_r2_v1.2.,2013-03-19 22:37:00,
2013-03-19 18:42:00,50.8,25.5,30.05,NNW,348,10.0,17.0,37,0.00,,,0.01,26,HR-IXPWINDi_r2_v1.2.,2013-03-19 22:42:00,
2013-03-19 18:48:00,50.5,25.2,30.05,SSE,168,10.0,17.0,37,0.00,,,0.01,25,HR-IXPWINDi_r2_v1.2.,2013-03-19 22:48:00,
2013-03-19 18:53:00,50.2,24.3,30.05,NNW,338,2.0,13.0,36,0.00,,,0.01,23,HR-IXPWINDi_r2_v1.2.,2013-03-19 22:53:00,
2013-03-19 18:58:00,50.1,22.1,30.05,NNW,339,6.0,11.0,33,0.00,,,0.01,21,HR-IXPWINDi_r2_v1.2.,2013-03-19 22:58:00,
2013-03-19 19:03:00,49.9,24.0,30.06,West,277,0.0,11.0,36,0.00,,,0.01,19,HR-IXPWINDi_r2_v1.2.,2013-03-19 23:03:00,
2013-03-19 19:08:00,49.8,23.9,30.06,North,355,0.0,11.0,36,0.00,,,0.01,18,HR-IXPWINDi_r2_v1.2.,2013-03-19 23:08:00,
2013-03-19 19:13:00,49.4,22.2,30.06,NE,36,6.0,10.0,34,0.00,,,0.01,16,HR-IXPWINDi_r2_v1.2.,2013-03-19 23:13:00,
2013-03-19 19:18:00,49.2,21.3,30.06,WSW,252,0.0,13.0,33,0.00,,,0.01,14,HR-IXPWINDi_r2_v1.2.,2013-03-19 23:18:00,
2013-03-19 19:23:00,48.9,21.8,30.07,North,355,2.0,13.0,34,0.00,,,0.01,12,HR-IXPWINDi_r2_v1.2.,2013-03-19 23:23:00,
2013-03-19 19:28:00,48.5,22.1,30.06,NNE,17,4.0,14.0,35,0.00,,,0.01,9,HR-IXPWINDi_r2_v1.2.,2013-03-19 23:28:00,
2013-03-19 19:33:00,48.1,20.4,30.06,WSW,248,1.0,14.0,33,0.00,,,0.01,7,HR-IXPWINDi_r2_v1.2.,2013-03-19 23:33:00,
2013-03-19 19:39:00,48.1,19.6,30.06,West,273,0.0,16.0,32,0.00,,,0.01,0,HR-IXPWINDi_r2_v1.2.,2013-03-19 23:39:00,
2013-03-19 19:44:00,47.6,19.9,30.07,WSW,254,1.0,16.0,33,0.00,,,0.01,0,HR-IXPWINDi_r2_v1.2.,2013-03-19 23:44:00,
2013-03-19 19:49:00,47.4,19.7,30.07,WNW,292,0.0,9.0,33,0.00,,,0.01,0,HR-IXPWINDi_r2_v1.2.,2013-03-19 23:49:00,
2013-03-19 19:55:00,47.0,18.7,30.08,NW,320,4.0,12.0,32,0.00,,,0.01,0,HR-IXPWINDi_r2_v1.2.,2013-03-19 23:55:00,
2013-03-19 20:00:00,47.1,17.3,30.08,NW,324,10.0,19.0,30,0.00,,,0.01,0,HR-IXPWINDi_r2_v1.2.,2013-03-20 00:00:00,
2013-03-19 20:05:00,47.0,17.2,30.09,SW,215,5.0,19.0,30,0.00,,,0.01,0,HR-IXPWINDi_r2_v1.2.,2013-03-20 00:05:00,
2013-03-19 20:10:00,46.4,18.9,30.09,NW,315,0.0,13.0,33,0.00,,,0.01,0,HR-IXPWINDi_r2_v1.2.,2013-03-20 00:10:00,
2013-03-19 20:15:00,45.9,19.1,30.09,North,349,3.0,10.0,34,0.00,,,0.01,0,HR-IXPWINDi_r2_v1.2.,2013-03-20 00:15:00,
2013-03-19 20:20:00,45.6,17.4,30.09,NNE,21,1.0,10.0,32,0.00,,,0.01,0,HR-IXPWINDi_r2_v1.2.,2013-03-20 00:20:00,
2013-03-19 20:26:00,45.5,16.6,30.09,South,187,4.0,8.0,31,0.00,,,0.01,0,HR-IXPWINDi_r2_v1.2.,2013-03-20 00:26:00,
2013-03-19 20:31:00,45.2,17.1,30.09,NW,323,1.0,6.0,32,0.00,,,0.01,0,HR-IXPWINDi_r2_v1.2.,2013-03-20 00:31:00,
2013-03-19 20:36:00,44.9,17.5,30.09,NW,313,0.0,7.0,33,0.00,,,0.01,0,HR-IXPWINDi_r2_v1.2.,2013-03-20 00:36:00,
2013-03-19 20:41:00,44.6,18.0,30.09,WNW,301,0.0,7.0,34,0.00,,,0.01,0,HR-IXPWINDi_r2_v1.2.,2013-03-20 00:41:00,
2013-03-19 20:46:00,44.3,15.6,30.09,WSW,255,0.0,7.0,31,0.00,,,0.01,0,HR-IXPWINDi_r2_v1.2.,2013-03-20 00:46:00,
2013-03-19 20:51:00,44.3,17.7,30.09,SSW,210,0.0,7.0,34,0.00,,,0.01,0,HR-IXPWINDi_r2_v1.2.,2013-03-20 00:51:00,
2013-03-19 20:56:00,44.2,16.2,30.10,SSW,210,2.0,5.0,32,0.00,,,0.01,0,HR-IXPWINDi_r2_v1.2.,2013-03-20 00:56:00,
2013-03-19 21:01:00,43.6,16.4,30.10,SSW,210,0.0,3.0,33,0.00,,,0.01,0,HR-IXPWINDi_r2_v1.2.,2013-03-20 01:01:00,
2013-03-19 21:06:00,43.4,15.5,30.10,NNW,338,2.0,4.0,32,0.00,,,0.01,0,HR-IXPWINDi_r2_v1.2.,2013-03-20 01:06:00,
2013-03-19 21:13:00,42.7,19.5,30.10,NNW,338,0.0,4.0,39,0.00,,,0.01,0,HR-IXPWINDi_r2_v1.2.,2013-03-20 01:13:00,
2013-03-19 21:18:00,42.4,19.2,30.10,NNW,338,0.0,1.0,39,0.00,,,0.01,0,HR-IXPWINDi_r2_v1.2.,2013-03-20 01:18:00,
2013-03-19 21:23:00,42.3,15.3,30.10,SSW,200,0.0,8.0,33,0.00,,,0.01,0,HR-IXPWINDi_r2_v1.2.,2013-03-20 01:23:00,
2013-03-19 21:29:00,42.2,18.4,30.10,SW,218,0.0,8.0,38,0.00,,,0.01,0,HR-IXPWINDi_r2_v1.2.,2013-03-20 01:29:00,
2013-03-19 21:34:00,41.5,17.2,30.10,SW,219,0.0,7.0,37,0.00,,,0.01,0,HR-IXPWINDi_r2_v1.2.,2013-03-20 01:34:00,
2013-03-19 21:39:00,41.1,19.2,30.10,West,271,0.0,3.0,41,0.00,,,0.01,0,HR-IXPWINDi_r2_v1.2.,2013-03-20 01:39:00,
2013-03-19 21:44:00,40.2,19.5,30.10,NNW,336,0.0,5.0,43,0.00,,,0.01,0,HR-IXPWINDi_r2_v1.2.,2013-03-20 01:44:00,
2013-03-19 21:49:00,40.5,19.2,30.10,NE,50,2.0,5.0,42,0.00,,,0.01,0,HR-IXPWINDi_r2_v1.2.,2013-03-20 01:49:00,
2013-03-19 21:55:00,41.7,16.1,30.10,West,262,0.0,6.0,35,0.00,,,0.01,0,HR-IXPWINDi_r2_v1.2.,2013-03-20 01:55:00,
2013-03-19 22:00:00,41.2,16.9,30.10,SSW,207,1.0,6.0,37,0.00,,,0.01,0,HR-IXPWINDi_r2_v1.2.,2013-03-20 02:00:00,
2013-03-19 22:05:00,40.4,18.6,30.11,SSW,207,0.0,4.0,41,0.00,,,0.01,0,HR-IXPWINDi_r2_v1.2.,2013-03-20 02:05:00,
2013-03-19 22:10:00,39.5,20.9,30.11,SSW,207,0.0,2.0,47,0.00,,,0.01,0,HR-IXPWINDi_r2_v1.2.,2013-03-20 02:10:00,
2013-03-19 22:15:00,39.5,21.9,30.11,SSW,207,0.0,2.0,49,0.00,,,0.01,0,HR-IXPWINDi_r2_v1.2.,2013-03-20 02:15:00,
2013-03-19 22:20:00,39.1,21.1,30.11,SW,225,3.0,3.0,48,0.00,,,0.01,0,HR-IXPWINDi_r2_v1.2.,2013-03-20 02:20:00,
2013-03-19 22:25:00,38.5,21.5,30.10,SW,225,0.0,3.0,50,0.00,,,0.01,0,HR-IXPWINDi_r2_v1.2.,2013-03-20 02:25:00,
2013-03-19 22:30:00,37.6,22.9,30.11,NNW,344,4.0,5.0,55,0.00,,,0.01,0,HR-IXPWINDi_r2_v1.2.,2013-03-20 02:30:00,
2013-03-19 22:36:00,37.1,21.6,30.11,NNW,344,2.0,5.0,53,0.00,,,0.01,0,HR-IXPWINDi_r2_v1.2.,2013-03-20 02:36:00,
2013-03-19 22:41:00,37.1,24.1,30.11,NNW,344,0.0,5.0,59,0.00,,,0.01,0,HR-IXPWINDi_r2_v1.2.,2013-03-20 02:41:00,
2013-03-19 22:46:00,36.2,23.2,30.11,NNW,344,0.0,3.0,59,0.00,,,0.01,0,HR-IXPWINDi_r2_v1.2.,2013-03-20 02:46:00,
2013-03-19 22:52:00,36.1,23.9,30.11,NNW,344,0.0,3.0,61,0.00,,,0.01,0,HR-IXPWINDi_r2_v1.2.,2013-03-20 02:52:00,
2013-03-19 22:57:00,35.5,23.8,30.11,NNW,344,0.0,3.0,62,0.00,,,0.01,0,HR-IXPWINDi_r2_v1.2.,2013-03-20 02:57:00,
2013-03-19 23:02:00,35.9,24.5,30.11,NNW,344,0.0,3.0,63,0.00,,,0.01,0,HR-IXPWINDi_r2_v1.2.,2013-03-20 03:02:00,
2013-03-19 23:08:00,35.2,24.2,30.11,NNW,344,0.0,3.0,64,0.00,,,0.01,0,HR-IXPWINDi_r2_v1.2.,2013-03-20 03:08:00,
2013-03-19 23:13:00,34.8,24.2,30.11,NNW,344,0.0,3.0,65,0.00,,,0.01,0,HR-IXPWINDi_r2_v1.2.,2013-03-20 03:13:00,
2013-03-19 23:18:00,34.4,24.6,30.12,NNW,344,0.0,0.0,67,0.00,,,0.01,0,HR-IXPWINDi_r2_v1.2.,2013-03-20 03:18:00,
2013-03-19 23:23:00,34.4,25.6,30.12,NNW,344,0.0,0.0,70,0.00,,,0.01,0,HR-IXPWINDi_r2_v1.2.,2013-03-20 03:23:00,
2013-03-19 23:28:00,34.4,25.3,30.12,NNW,344,0.0,1.0,69,0.00,,,0.01,0,HR-IXPWINDi_r2_v1.2.,2013-03-20 03:28:00,
2013-03-19 23:33:00,34.3,25.2,30.12,NNW,344,1.0,2.0,69,0.00,,,0.01,0,HR-IXPWINDi_r2_v1.2.,2013-03-20 03:33:00,
2013-03-19 23:38:00,34.4,24.9,30.12,NNW,344,0.0,2.0,68,0.00,,,0.01,0,HR-IXPWINDi_r2_v1.2.,2013-03-20 03:38:00,
2013-03-19 23:43:00,34.4,25.3,30.12,NNW,344,0.0,1.0,69,0.00,,,0.01,0,HR-IXPWINDi_r2_v1.2.,2013-03-20 03:43:00,
2013-03-19 23:49:00,33.4,24.7,30.12,NNW,344,0.0,1.0,70,0.00,,,0.01,0,HR-IXPWINDi_r2_v1.2.,2013-03-20 03:49:00,
2013-03-19 23:54:00,32.8,24.8,30.12,NNW,344,0.0,2.0,72,0.00,,,0.01,0,HR-IXPWINDi_r2_v1.2.,2013-03-20 03:54:00,
2013-03-19 23:59:00,32.9,24.2,30.12,NNW,344,0.0,2.0,70,0.00,,,0.00,0,HR-IXPWINDi_r2_v1.2.,2013-03-20 03:59:00,